createdAt,value
2023-05-19T00:00:45.026Z,0.00
2023-05-19T00:01:43.707Z,0.00
2023-05-19T00:02:43.697Z,0.00
2023-05-19T00:03:43.670Z,0.00
2023-05-19T00:04:43.577Z,0.00
2023-05-19T00:05:43.652Z,0.00
2023-05-19T00:06:43.497Z,0.00
2023-05-19T00:07:43.468Z,0.00
2023-05-19T00:08:43.439Z,0.00
2023-05-19T00:09:43.392Z,0.00
2023-05-19T00:10:43.368Z,0.00
2023-05-19T00:11:43.440Z,0.00
2023-05-19T00:12:43.328Z,0.00
2023-05-19T00:13:43.260Z,0.00
2023-05-19T00:14:43.773Z,0.00
2023-05-19T00:15:43.270Z,0.00
2023-05-19T00:16:43.235Z,0.00
2023-05-19T00:17:43.140Z,0.00
2023-05-19T00:18:43.099Z,0.00
2023-05-19T00:19:43.067Z,0.00
2023-05-19T00:20:43.020Z,0.00
2023-05-19T00:21:43.063Z,0.00
2023-05-19T00:22:42.961Z,0.00
2023-05-19T00:23:42.918Z,0.00
2023-05-19T00:24:42.903Z,0.00
2023-05-19T00:25:42.877Z,0.00
2023-05-19T00:26:42.815Z,0.00
2023-05-19T00:27:42.850Z,0.00
2023-05-19T00:28:42.750Z,0.00
2023-05-19T00:29:42.713Z,0.00
2023-05-19T00:30:42.677Z,0.00
2023-05-19T00:31:42.676Z,0.00
2023-05-19T00:32:42.640Z,0.00
2023-05-19T00:33:42.642Z,0.00
2023-05-19T00:34:42.540Z,0.00
2023-05-19T00:35:42.503Z,0.00
2023-05-19T00:36:42.474Z,0.00
2023-05-19T00:37:42.436Z,0.00
2023-05-19T00:38:42.424Z,0.00
2023-05-19T00:39:42.442Z,0.00
2023-05-19T00:40:42.332Z,0.00
2023-05-19T00:41:42.304Z,0.00
2023-05-19T00:42:42.304Z,0.00
2023-05-19T00:43:42.235Z,0.00
2023-05-19T00:44:42.239Z,0.00
2023-05-19T00:45:42.438Z,0.00
2023-05-19T00:46:42.148Z,0.00
2023-05-19T00:47:42.122Z,0.00
2023-05-19T00:48:42.061Z,0.00
2023-05-19T00:49:42.033Z,0.00
2023-05-19T00:50:41.995Z,0.00
2023-05-19T00:51:42.509Z,0.00
2023-05-19T00:52:41.946Z,0.00
2023-05-19T00:53:41.887Z,0.00
2023-05-19T00:54:41.863Z,0.00
2023-05-19T00:55:41.822Z,0.00
2023-05-19T00:56:41.816Z,0.00
2023-05-19T00:57:41.841Z,0.00
2023-05-19T00:58:41.730Z,0.00
2023-05-19T00:59:41.681Z,0.00
2023-05-19T01:00:41.677Z,0.00
2023-05-19T01:01:41.614Z,0.00
2023-05-19T01:02:41.652Z,0.00
2023-05-19T01:03:41.649Z,0.00
2023-05-19T01:04:41.503Z,0.00
2023-05-19T01:05:41.476Z,0.00
2023-05-19T01:06:41.483Z,0.00
2023-05-19T01:07:41.410Z,0.00
2023-05-19T01:08:41.385Z,0.00
2023-05-19T01:09:41.395Z,0.00
2023-05-19T01:10:41.309Z,0.00
2023-05-19T01:11:41.254Z,0.00
2023-05-19T01:12:41.217Z,0.00
2023-05-19T01:13:42.222Z,0.00
2023-05-19T01:14:41.156Z,0.00
2023-05-19T01:15:41.178Z,0.00
2023-05-19T01:16:41.129Z,0.00
2023-05-19T01:17:41.072Z,0.00
2023-05-19T01:18:41.045Z,0.00
2023-05-19T01:19:41.179Z,0.00
2023-05-19T01:20:40.945Z,0.00
2023-05-19T01:21:40.991Z,0.00
2023-05-19T01:22:40.882Z,0.00
2023-05-19T01:23:40.845Z,0.00
2023-05-19T01:24:40.822Z,0.00
2023-05-19T01:25:40.781Z,0.00
2023-05-19T01:26:40.795Z,0.00
2023-05-19T01:27:40.711Z,0.00
2023-05-19T01:28:40.669Z,0.00
2023-05-19T01:29:40.637Z,0.00
2023-05-19T01:30:40.594Z,0.00
2023-05-19T01:31:40.615Z,0.00
2023-05-19T01:32:40.669Z,0.00
2023-05-19T01:33:40.513Z,0.00
2023-05-19T01:34:40.472Z,0.00
2023-05-19T01:35:40.436Z,0.00
2023-05-19T01:36:40.419Z,0.00
2023-05-19T01:37:40.466Z,0.00
2023-05-19T01:38:40.334Z,0.00
2023-05-19T01:39:40.311Z,0.00
2023-05-19T01:40:40.260Z,0.00
2023-05-19T01:41:40.248Z,0.00
2023-05-19T01:42:40.209Z,0.00
2023-05-19T01:43:40.566Z,0.00
2023-05-19T01:44:40.112Z,0.00
2023-05-19T01:45:40.151Z,0.00
2023-05-19T01:46:40.064Z,0.00
2023-05-19T01:47:40.081Z,0.00
2023-05-19T01:48:40.000Z,0.00
2023-05-19T01:49:39.999Z,0.00
2023-05-19T01:50:39.930Z,0.00
2023-05-19T01:51:39.877Z,0.00
2023-05-19T01:52:39.869Z,0.00
2023-05-19T01:53:39.828Z,0.00
2023-05-19T01:54:39.771Z,0.00
2023-05-19T01:55:39.855Z,0.00
2023-05-19T01:56:39.741Z,0.00
2023-05-19T01:57:39.667Z,0.00
2023-05-19T01:58:39.638Z,0.00
2023-05-19T01:59:39.607Z,0.00
2023-05-19T02:00:39.570Z,0.00
2023-05-19T02:01:39.642Z,0.00
2023-05-19T02:02:39.603Z,0.00
2023-05-19T02:03:39.481Z,0.00
2023-05-19T02:04:39.491Z,0.00
2023-05-19T02:05:39.392Z,0.00
2023-05-19T02:06:39.451Z,0.00
2023-05-19T02:07:39.336Z,0.00
2023-05-19T02:08:39.297Z,0.00
2023-05-19T02:09:39.253Z,0.00
2023-05-19T02:10:39.214Z,0.00
2023-05-19T02:11:39.164Z,0.00
2023-05-19T02:12:39.197Z,0.00
2023-05-19T02:13:39.105Z,0.00
2023-05-19T02:14:39.078Z,0.00
2023-05-19T02:15:39.093Z,0.00
2023-05-19T02:16:38.997Z,0.00
2023-05-19T02:17:39.066Z,0.00
2023-05-19T02:18:38.978Z,0.00
2023-05-19T02:19:38.884Z,0.00
2023-05-19T02:20:38.868Z,0.00
2023-05-19T02:21:38.825Z,0.00
2023-05-19T02:22:38.788Z,0.00
2023-05-19T02:23:38.809Z,0.00
2023-05-19T02:24:38.724Z,0.00
2023-05-19T02:25:38.681Z,0.00
2023-05-19T02:26:38.650Z,0.00
2023-05-19T02:27:38.616Z,0.00
2023-05-19T02:28:38.674Z,0.00
2023-05-19T02:29:38.542Z,0.00
2023-05-19T02:30:38.505Z,0.00
2023-05-19T02:31:38.556Z,0.00
2023-05-19T02:32:38.504Z,0.00
2023-05-19T02:33:38.389Z,0.00
2023-05-19T02:34:38.419Z,0.00
2023-05-19T02:35:38.328Z,0.00
2023-05-19T02:36:38.304Z,0.00
2023-05-19T02:37:38.255Z,0.00
2023-05-19T02:38:38.268Z,0.00
2023-05-19T02:39:38.178Z,0.00
2023-05-19T02:40:38.207Z,0.00
2023-05-19T02:41:38.118Z,0.00
2023-05-19T02:42:38.130Z,0.00
2023-05-19T02:43:38.070Z,0.00
2023-05-19T02:44:38.018Z,0.00
2023-05-19T02:45:38.044Z,0.00
2023-05-19T02:46:37.986Z,0.00
2023-05-19T02:47:37.935Z,0.00
2023-05-19T02:48:37.870Z,0.00
2023-05-19T02:49:37.886Z,0.00
2023-05-19T02:50:37.800Z,0.00
2023-05-19T02:51:37.786Z,0.00
2023-05-19T02:52:37.727Z,0.00
2023-05-19T02:53:37.711Z,0.00
2023-05-19T02:54:37.675Z,0.00
2023-05-19T02:55:37.693Z,0.00
2023-05-19T02:56:37.585Z,0.00
2023-05-19T02:57:37.547Z,5.63
2023-05-19T02:58:37.521Z,5.63
2023-05-19T02:59:37.486Z,5.63
2023-05-19T03:00:37.491Z,5.63
2023-05-19T03:01:38.326Z,5.63
2023-05-19T03:02:37.443Z,5.63
2023-05-19T03:03:37.436Z,5.63
2023-05-19T03:04:37.306Z,5.63
2023-05-19T03:05:37.266Z,5.63
2023-05-19T03:06:37.290Z,11.25
2023-05-19T03:07:37.203Z,11.25
2023-05-19T03:08:37.695Z,11.25
2023-05-19T03:09:37.132Z,11.25
2023-05-19T03:10:37.105Z,11.25
2023-05-19T03:11:37.058Z,16.88
2023-05-19T03:12:37.083Z,16.88
2023-05-19T03:13:36.990Z,16.88
2023-05-19T03:14:36.967Z,16.88
2023-05-19T03:15:36.973Z,22.50
2023-05-19T03:16:36.977Z,22.50
2023-05-19T03:17:37.043Z,22.50
2023-05-19T03:18:36.894Z,28.13
2023-05-19T03:19:36.790Z,28.13
2023-05-19T03:20:36.753Z,28.13
2023-05-19T03:21:36.719Z,28.13
2023-05-19T03:22:36.748Z,33.75
2023-05-19T03:23:36.656Z,33.75
2023-05-19T03:24:36.620Z,28.13
2023-05-19T03:25:36.583Z,28.13
2023-05-19T03:26:36.537Z,28.13
2023-05-19T03:27:36.504Z,28.13
2023-05-19T03:28:36.534Z,28.13
2023-05-19T03:29:36.444Z,28.13
2023-05-19T03:30:36.411Z,28.13
2023-05-19T03:31:36.356Z,28.13
2023-05-19T03:32:36.497Z,28.13
2023-05-19T03:33:36.348Z,28.13
2023-05-19T03:34:36.320Z,33.75
2023-05-19T03:35:36.235Z,33.75
2023-05-19T03:36:36.190Z,39.38
2023-05-19T03:37:36.149Z,39.38
2023-05-19T03:38:36.185Z,45.00
2023-05-19T03:39:36.091Z,50.63
2023-05-19T03:40:36.048Z,56.25
2023-05-19T03:41:36.014Z,61.88
2023-05-19T03:42:35.980Z,73.13
2023-05-19T03:43:36.008Z,73.13
2023-05-19T03:44:35.981Z,78.75
2023-05-19T03:45:36.817Z,78.75
2023-05-19T03:46:35.827Z,84.38
2023-05-19T03:47:35.860Z,90.00
2023-05-19T03:48:35.775Z,90.00
2023-05-19T03:49:35.737Z,95.63
2023-05-19T03:50:35.748Z,95.63
2023-05-19T03:51:35.711Z,95.63
2023-05-19T03:52:35.628Z,101.25
2023-05-19T03:53:35.638Z,106.88
2023-05-19T03:54:35.558Z,106.88
2023-05-19T03:55:35.526Z,112.50
2023-05-19T03:56:35.546Z,112.50
2023-05-19T03:57:35.451Z,118.13
2023-05-19T03:58:35.417Z,123.75
2023-05-19T03:59:35.389Z,129.38
2023-05-19T04:00:35.655Z,135.00
2023-05-19T04:01:35.313Z,140.63
2023-05-19T04:02:35.385Z,151.88
2023-05-19T04:03:35.259Z,157.50
2023-05-19T04:04:35.253Z,168.75
2023-05-19T04:05:35.194Z,168.75
2023-05-19T04:06:35.138Z,174.38
2023-05-19T04:07:35.101Z,174.38
2023-05-19T04:08:35.153Z,191.25
2023-05-19T04:09:35.072Z,208.13
2023-05-19T04:10:35.007Z,219.38
2023-05-19T04:11:34.975Z,225.00
2023-05-19T04:12:34.937Z,225.00
2023-05-19T04:13:34.961Z,219.38
2023-05-19T04:14:34.885Z,219.38
2023-05-19T04:15:34.877Z,219.38
2023-05-19T04:16:34.856Z,225.00
2023-05-19T04:17:34.805Z,236.25
2023-05-19T04:18:34.725Z,230.63
2023-05-19T04:19:34.757Z,219.38
2023-05-19T04:20:34.821Z,208.13
2023-05-19T04:21:34.629Z,208.13
2023-05-19T04:22:34.598Z,213.75
2023-05-19T04:23:34.559Z,213.75
2023-05-19T04:24:34.585Z,219.38
2023-05-19T04:25:34.494Z,219.38
2023-05-19T04:26:34.572Z,219.38
2023-05-19T04:27:34.433Z,225.00
2023-05-19T04:28:34.407Z,225.00
2023-05-19T04:29:34.361Z,225.00
2023-05-19T04:30:34.583Z,230.63
2023-05-19T04:31:34.500Z,230.63
2023-05-19T04:32:34.273Z,230.63
2023-05-19T04:33:34.235Z,236.25
2023-05-19T04:34:34.216Z,236.25
2023-05-19T04:35:34.156Z,241.88
2023-05-19T04:36:34.264Z,241.88
2023-05-19T04:37:34.089Z,241.88
2023-05-19T04:38:34.051Z,247.50
2023-05-19T04:39:34.026Z,253.13
2023-05-19T04:40:34.170Z,253.13
2023-05-19T04:41:33.956Z,258.75
2023-05-19T04:42:33.990Z,264.38
2023-05-19T04:43:33.882Z,275.63
2023-05-19T04:44:33.859Z,275.63
2023-05-19T04:45:33.893Z,281.25
2023-05-19T04:46:33.941Z,286.88
2023-05-19T04:47:33.814Z,298.13
2023-05-19T04:48:33.840Z,303.75
2023-05-19T04:49:33.690Z,309.38
2023-05-19T04:50:33.893Z,309.38
2023-05-19T04:51:33.623Z,309.38
2023-05-19T04:52:33.604Z,315.00
2023-05-19T04:53:33.554Z,320.63
2023-05-19T04:54:33.594Z,326.25
2023-05-19T04:55:33.510Z,331.88
2023-05-19T04:56:33.452Z,337.50
2023-05-19T04:57:33.430Z,337.50
2023-05-19T04:58:33.421Z,343.13
2023-05-19T04:59:33.373Z,348.75
2023-05-19T05:00:33.643Z,348.75
2023-05-19T05:01:33.330Z,354.38
2023-05-19T05:02:33.285Z,354.38
2023-05-19T05:03:33.335Z,360.00
2023-05-19T05:04:33.500Z,365.63
2023-05-19T05:05:33.155Z,388.13
2023-05-19T05:06:33.110Z,382.50
2023-05-19T05:07:33.102Z,360.00
2023-05-19T05:08:33.061Z,360.00
2023-05-19T05:09:33.030Z,360.00
2023-05-19T05:10:33.151Z,360.00
2023-05-19T05:11:32.962Z,360.00
2023-05-19T05:12:32.956Z,354.38
2023-05-19T05:13:32.893Z,354.38
2023-05-19T05:14:32.860Z,365.63
2023-05-19T05:15:32.835Z,388.13
2023-05-19T05:16:32.911Z,410.63
2023-05-19T05:17:32.822Z,421.88
2023-05-19T05:18:32.725Z,433.13
2023-05-19T05:19:32.833Z,478.13
2023-05-19T05:20:32.880Z,585.00
2023-05-19T05:21:32.638Z,646.88
2023-05-19T05:22:32.652Z,658.13
2023-05-19T05:23:32.559Z,596.25
2023-05-19T05:24:33.316Z,495.00
2023-05-19T05:25:32.649Z,483.75
2023-05-19T05:26:32.465Z,472.50
2023-05-19T05:27:32.514Z,455.63
2023-05-19T05:28:32.409Z,534.38
2023-05-19T05:29:32.386Z,523.13
2023-05-19T05:30:32.347Z,455.63
2023-05-19T05:31:32.312Z,517.50
2023-05-19T05:32:32.369Z,573.75
2023-05-19T05:33:32.337Z,540.00
2023-05-19T05:34:32.218Z,528.75
2023-05-19T05:35:32.311Z,517.50
2023-05-19T05:36:32.177Z,495.00
2023-05-19T05:37:32.141Z,472.50
2023-05-19T05:38:32.100Z,461.25
2023-05-19T05:39:32.159Z,438.75
2023-05-19T05:40:32.023Z,433.13
2023-05-19T05:41:32.004Z,438.75
2023-05-19T05:42:31.966Z,450.00
2023-05-19T05:43:31.935Z,450.00
2023-05-19T05:44:31.903Z,438.75
2023-05-19T05:45:32.658Z,427.50
2023-05-19T05:46:31.934Z,421.88
2023-05-19T05:47:32.393Z,416.25
2023-05-19T05:48:31.833Z,410.63
2023-05-19T05:49:31.752Z,416.25
2023-05-19T05:50:31.736Z,405.00
2023-05-19T05:51:31.744Z,399.38
2023-05-19T05:52:31.654Z,399.38
2023-05-19T05:53:31.636Z,393.75
2023-05-19T05:54:31.598Z,388.13
2023-05-19T05:55:31.761Z,382.50
2023-05-19T05:56:31.539Z,376.88
2023-05-19T05:57:31.599Z,371.25
2023-05-19T05:58:31.472Z,371.25
2023-05-19T05:59:31.453Z,371.25
2023-05-19T06:00:31.680Z,365.63
2023-05-19T06:01:33.039Z,365.63
2023-05-19T06:02:31.439Z,360.00
2023-05-19T06:03:31.964Z,360.00
2023-05-19T06:04:31.290Z,354.38
2023-05-19T06:05:31.388Z,348.75
2023-05-19T06:06:31.303Z,337.50
2023-05-19T06:07:31.209Z,337.50
2023-05-19T06:08:31.183Z,331.88
2023-05-19T06:09:31.156Z,326.25
2023-05-19T06:10:31.281Z,320.63
2023-05-19T06:11:31.139Z,315.00
2023-05-19T06:12:31.102Z,309.38
2023-05-19T06:13:31.026Z,303.75
2023-05-19T06:14:30.997Z,298.13
2023-05-19T06:15:30.974Z,292.50
2023-05-19T06:16:31.583Z,286.88
2023-05-19T06:17:30.986Z,286.88
2023-05-19T06:18:30.868Z,281.25
2023-05-19T06:19:30.931Z,281.25
2023-05-19T06:20:30.968Z,281.25
2023-05-19T06:21:30.803Z,281.25
2023-05-19T06:22:30.762Z,286.88
2023-05-19T06:23:30.785Z,281.25
2023-05-19T06:24:30.701Z,281.25
2023-05-19T06:25:30.942Z,281.25
2023-05-19T06:26:30.622Z,286.88
2023-05-19T06:27:32.199Z,275.63
2023-05-19T06:28:30.561Z,292.50
2023-05-19T06:29:30.581Z,298.13
2023-05-19T06:30:30.658Z,303.75
2023-05-19T06:31:30.514Z,303.75
2023-05-19T06:32:30.459Z,298.13
2023-05-19T06:33:30.425Z,292.50
2023-05-19T06:34:30.380Z,286.88
2023-05-19T06:35:30.396Z,286.88
2023-05-19T06:36:30.317Z,292.50
2023-05-19T06:37:30.287Z,309.38
2023-05-19T06:38:30.249Z,331.88
2023-05-19T06:39:30.219Z,348.75
2023-05-19T06:40:30.280Z,365.63
2023-05-19T06:41:30.307Z,376.88
2023-05-19T06:42:30.126Z,382.50
2023-05-19T06:43:30.100Z,388.13
2023-05-19T06:44:34.848Z,410.63
2023-05-19T06:45:34.863Z,438.75
2023-05-19T06:46:31.034Z,483.75
2023-05-19T06:47:30.050Z,523.13
2023-05-19T06:48:30.028Z,579.38
2023-05-19T06:49:29.928Z,613.13
2023-05-19T06:50:29.954Z,607.50
2023-05-19T06:51:29.853Z,596.25
2023-05-19T06:52:29.870Z,568.13
2023-05-19T06:53:29.792Z,568.13
2023-05-19T06:54:29.783Z,601.88
2023-05-19T06:55:29.726Z,630.00
2023-05-19T06:56:29.697Z,646.88
2023-05-19T06:57:29.677Z,641.25
2023-05-19T06:58:29.690Z,624.38
2023-05-19T06:59:29.635Z,607.50
2023-05-19T07:00:34.536Z,579.38
2023-05-19T07:01:29.565Z,551.25
2023-05-19T07:02:31.402Z,506.25
2023-05-19T07:03:33.449Z,466.88
2023-05-19T07:04:29.567Z,421.88
2023-05-19T07:05:29.435Z,393.75
2023-05-19T07:06:29.452Z,360.00
2023-05-19T07:07:29.399Z,331.88
2023-05-19T07:08:29.347Z,315.00
2023-05-19T07:09:29.324Z,303.75
2023-05-19T07:10:29.354Z,298.13
2023-05-19T07:11:29.271Z,298.13
2023-05-19T07:12:29.229Z,292.50
2023-05-19T07:13:29.194Z,298.13
2023-05-19T07:14:29.179Z,298.13
2023-05-19T07:15:29.134Z,303.75
2023-05-19T07:16:29.225Z,320.63
2023-05-19T07:17:29.123Z,337.50
2023-05-19T07:18:29.056Z,360.00
2023-05-19T07:19:29.052Z,382.50
2023-05-19T07:20:29.012Z,410.63
2023-05-19T07:21:28.965Z,427.50
2023-05-19T07:22:28.979Z,444.38
2023-05-19T07:23:28.902Z,450.00
2023-05-19T07:24:28.875Z,444.38
2023-05-19T07:25:28.851Z,421.88
2023-05-19T07:26:28.809Z,382.50
2023-05-19T07:27:28.795Z,354.38
2023-05-19T07:28:28.809Z,343.13
2023-05-19T07:29:28.727Z,326.25
2023-05-19T07:30:28.698Z,315.00
2023-05-19T07:31:28.686Z,309.38
2023-05-19T07:32:28.941Z,303.75
2023-05-19T07:33:28.612Z,303.75
2023-05-19T07:34:28.631Z,298.13
2023-05-19T07:35:28.578Z,286.88
2023-05-19T07:36:28.529Z,292.50
2023-05-19T07:37:28.492Z,298.13
2023-05-19T07:38:28.462Z,303.75
2023-05-19T07:39:28.442Z,315.00
2023-05-19T07:40:28.438Z,315.00
2023-05-19T07:41:28.378Z,326.25
2023-05-19T07:42:28.385Z,337.50
2023-05-19T07:43:28.321Z,343.13
2023-05-19T07:44:28.284Z,348.75
2023-05-19T07:45:28.326Z,343.13
2023-05-19T07:46:28.634Z,337.50
2023-05-19T07:47:28.222Z,343.13
2023-05-19T07:48:28.224Z,348.75
2023-05-19T07:49:28.133Z,360.00
2023-05-19T07:50:28.131Z,382.50
2023-05-19T07:51:28.120Z,416.25
2023-05-19T07:52:28.081Z,427.50
2023-05-19T07:53:28.032Z,433.13
2023-05-19T07:54:28.033Z,433.13
2023-05-19T07:55:27.958Z,444.38
2023-05-19T07:56:27.922Z,478.13
2023-05-19T07:57:27.971Z,511.88
2023-05-19T07:58:27.892Z,545.63
2023-05-19T07:59:27.966Z,585.00
2023-05-19T08:00:27.799Z,618.75
2023-05-19T08:01:27.803Z,646.88
2023-05-19T08:02:27.863Z,658.13
2023-05-19T08:04:27.741Z,703.13
2023-05-19T08:05:27.677Z,714.38
2023-05-19T08:06:27.631Z,708.75
2023-05-19T08:07:27.608Z,691.88
2023-05-19T08:08:27.783Z,658.13
2023-05-19T08:09:27.661Z,663.75
2023-05-19T08:10:27.516Z,646.88
2023-05-19T08:11:27.554Z,613.13
2023-05-19T08:12:27.478Z,585.00
2023-05-19T08:13:27.481Z,562.50
2023-05-19T08:14:27.414Z,534.38
2023-05-19T08:15:27.485Z,540.00
2023-05-19T08:16:27.387Z,562.50
2023-05-19T08:17:27.377Z,579.38
2023-05-19T08:18:27.303Z,590.63
2023-05-19T08:19:27.449Z,618.75
2023-05-19T08:20:27.258Z,652.50
2023-05-19T08:21:27.236Z,663.75
2023-05-19T08:22:27.185Z,686.25
2023-05-19T08:23:27.174Z,691.88
2023-05-19T08:24:27.300Z,691.88
2023-05-19T08:25:27.165Z,680.63
2023-05-19T08:26:27.113Z,663.75
2023-05-19T08:27:27.060Z,658.13
2023-05-19T08:28:27.019Z,675.00
2023-05-19T08:29:27.023Z,720.00
2023-05-19T08:30:26.973Z,770.63
2023-05-19T08:31:27.614Z,793.13
2023-05-19T08:32:26.952Z,787.50
2023-05-19T08:33:26.886Z,793.13
2023-05-19T08:34:27.122Z,804.38
2023-05-19T08:35:26.847Z,810.00
2023-05-19T08:36:26.822Z,765.00
2023-05-19T08:37:26.871Z,748.13
2023-05-19T08:38:27.241Z,736.88
2023-05-19T08:39:26.762Z,748.13
2023-05-19T08:40:26.719Z,736.88
2023-05-19T08:41:26.691Z,753.75
2023-05-19T08:42:26.654Z,759.38
2023-05-19T08:43:26.686Z,714.38
2023-05-19T08:44:26.625Z,646.88
2023-05-19T08:45:26.562Z,613.13
2023-05-19T08:46:26.689Z,624.38
2023-05-19T08:47:26.544Z,646.88
2023-05-19T08:48:26.500Z,675.00
2023-05-19T08:49:26.548Z,658.13
2023-05-19T08:50:26.443Z,630.00
2023-05-19T08:51:26.418Z,590.63
2023-05-19T08:52:26.426Z,573.75
2023-05-19T08:53:34.060Z,551.25
2023-05-19T08:54:26.345Z,556.88
2023-05-19T08:55:26.382Z,506.25
2023-05-19T08:56:26.315Z,495.00
2023-05-19T08:57:26.254Z,495.00
2023-05-19T08:58:26.862Z,523.13
2023-05-19T08:59:26.203Z,573.75
2023-05-19T09:00:26.196Z,596.25
2023-05-19T09:01:26.229Z,596.25
2023-05-19T09:02:26.142Z,540.00
2023-05-19T09:03:26.137Z,495.00
2023-05-19T09:04:27.112Z,489.38
2023-05-19T09:05:26.054Z,450.00
2023-05-19T09:06:26.017Z,450.00
2023-05-19T09:07:26.040Z,483.75
2023-05-19T09:08:26.050Z,455.63
2023-05-19T09:09:25.944Z,461.25
2023-05-19T09:10:27.163Z,495.00
2023-05-19T09:11:25.894Z,545.63
2023-05-19T09:12:25.874Z,556.88
2023-05-19T09:13:25.907Z,641.25
2023-05-19T09:14:25.809Z,736.88
2023-05-19T09:15:25.781Z,765.00
2023-05-19T09:16:27.807Z,725.63
2023-05-19T09:17:25.886Z,646.88
2023-05-19T09:18:25.757Z,613.13
2023-05-19T09:19:25.788Z,624.38
2023-05-19T09:20:25.728Z,675.00
2023-05-19T09:21:25.637Z,686.25
2023-05-19T09:22:25.608Z,691.88
2023-05-19T09:23:25.585Z,658.13
2023-05-19T09:24:25.546Z,613.13
2023-05-19T09:25:26.088Z,585.00
2023-05-19T09:26:25.492Z,585.00
2023-05-19T09:27:25.493Z,624.38
2023-05-19T09:28:25.564Z,607.50
2023-05-19T09:29:25.412Z,540.00
2023-05-19T09:30:25.399Z,495.00
2023-05-19T09:31:25.427Z,556.88
2023-05-19T09:32:25.491Z,590.63
2023-05-19T09:33:25.325Z,573.75
2023-05-19T09:34:25.291Z,635.63
2023-05-19T09:35:25.279Z,703.13
2023-05-19T09:36:25.222Z,725.63
2023-05-19T09:37:25.272Z,686.25
2023-05-19T09:38:25.177Z,590.63
2023-05-19T09:39:25.155Z,483.75
2023-05-19T09:40:25.124Z,444.38
2023-05-19T09:41:25.089Z,433.13
2023-05-19T09:42:25.069Z,433.13
2023-05-19T09:43:25.256Z,433.13
2023-05-19T09:44:25.014Z,472.50
2023-05-19T09:45:24.981Z,495.00
2023-05-19T09:46:25.052Z,579.38
2023-05-19T09:47:24.956Z,618.75
2023-05-19T09:48:24.923Z,658.13
2023-05-19T09:49:24.943Z,691.88
2023-05-19T09:50:24.858Z,714.38
2023-05-19T09:51:24.871Z,770.63
2023-05-19T09:52:24.862Z,686.25
2023-05-19T09:53:24.798Z,579.38
2023-05-19T09:54:24.832Z,495.00
2023-05-19T09:55:24.872Z,450.00
2023-05-19T09:56:24.698Z,461.25
2023-05-19T09:57:24.676Z,483.75
2023-05-19T09:58:24.664Z,534.38
2023-05-19T09:59:24.640Z,568.13
2023-05-19T10:00:24.636Z,585.00
2023-05-19T10:01:24.616Z,562.50
2023-05-19T10:02:24.547Z,528.75
2023-05-19T10:03:24.526Z,506.25
2023-05-19T10:04:24.519Z,495.00
2023-05-19T10:05:25.141Z,551.25
2023-05-19T10:06:24.479Z,646.88
2023-05-19T10:07:24.402Z,652.50
2023-05-19T10:08:24.382Z,652.50
2023-05-19T10:09:24.358Z,669.38
2023-05-19T10:10:24.316Z,680.63
2023-05-19T10:11:24.365Z,691.88
2023-05-19T10:12:24.278Z,736.88
2023-05-19T10:13:24.265Z,759.38
2023-05-19T10:14:24.220Z,765.00
2023-05-19T10:15:24.189Z,776.25
2023-05-19T10:16:24.183Z,787.50
2023-05-19T10:17:24.242Z,804.38
2023-05-19T10:18:24.117Z,776.25
2023-05-19T10:19:24.253Z,742.50
2023-05-19T10:20:24.085Z,720.00
2023-05-19T10:21:24.047Z,675.00
2023-05-19T10:22:24.044Z,613.13
2023-05-19T10:23:24.055Z,579.38
2023-05-19T10:24:24.016Z,579.38
2023-05-19T10:25:23.934Z,613.13
2023-05-19T10:26:23.920Z,630.00
2023-05-19T10:27:23.875Z,601.88
2023-05-19T10:28:23.875Z,624.38
2023-05-19T10:29:23.894Z,658.13
2023-05-19T10:30:23.817Z,618.75
2023-05-19T10:31:23.794Z,613.13
2023-05-19T10:32:23.851Z,641.25
2023-05-19T10:33:23.757Z,646.88
2023-05-19T10:34:23.707Z,613.13
2023-05-19T10:35:23.734Z,590.63
2023-05-19T10:36:23.648Z,585.00
2023-05-19T10:37:23.648Z,630.00
2023-05-19T10:38:23.600Z,658.13
2023-05-19T10:39:23.576Z,663.75
2023-05-19T10:40:23.541Z,686.25
2023-05-19T10:41:23.575Z,669.38
2023-05-19T10:42:23.495Z,680.63
2023-05-19T10:43:23.460Z,691.88
2023-05-19T10:44:23.432Z,703.13
2023-05-19T10:45:23.407Z,658.13
2023-05-19T10:46:23.487Z,613.13
2023-05-19T10:47:23.511Z,596.25
2023-05-19T10:48:23.374Z,618.75
2023-05-19T10:49:23.309Z,658.13
2023-05-19T10:50:23.273Z,742.50
2023-05-19T10:51:23.249Z,781.88
2023-05-19T10:52:23.467Z,798.75
2023-05-19T10:53:23.265Z,815.63
2023-05-19T10:54:23.188Z,810.00
2023-05-19T10:55:23.154Z,776.25
2023-05-19T10:56:23.152Z,731.25
2023-05-19T10:57:23.129Z,658.13
2023-05-19T10:58:23.078Z,607.50
2023-05-19T10:59:23.146Z,596.25
2023-05-19T11:00:23.028Z,613.13
2023-05-19T11:01:23.011Z,596.25
2023-05-19T11:02:23.232Z,663.75
2023-05-19T11:03:22.993Z,686.25
2023-05-19T11:04:22.974Z,748.13
2023-05-19T11:05:23.000Z,798.75
2023-05-19T11:06:22.891Z,804.38
2023-05-19T11:07:22.873Z,804.38
2023-05-19T11:08:22.823Z,776.25
2023-05-19T11:09:34.191Z,759.38
2023-05-19T11:10:22.798Z,731.25
2023-05-19T11:11:23.439Z,686.25
2023-05-19T11:12:24.759Z,658.13
2023-05-19T11:13:23.196Z,658.13
2023-05-19T11:14:22.746Z,618.75
2023-05-19T11:15:22.652Z,579.38
2023-05-19T11:16:22.742Z,556.88
2023-05-19T11:17:22.642Z,573.75
2023-05-19T11:18:22.619Z,624.38
2023-05-19T11:19:22.824Z,669.38
2023-05-19T11:20:22.615Z,663.75
2023-05-19T11:21:22.651Z,658.13
2023-05-19T11:22:22.501Z,607.50
2023-05-19T11:23:22.549Z,590.63
2023-05-19T11:24:22.496Z,607.50
2023-05-19T11:25:22.435Z,635.63
2023-05-19T11:26:22.408Z,669.38
2023-05-19T11:27:22.366Z,720.00
2023-05-19T11:28:22.342Z,736.88
2023-05-19T11:29:22.381Z,720.00
2023-05-19T11:30:22.327Z,731.25
2023-05-19T11:31:22.297Z,742.50
2023-05-19T11:32:22.271Z,708.75
2023-05-19T11:33:22.249Z,675.00
2023-05-19T11:34:22.270Z,630.00
2023-05-19T11:35:23.093Z,624.38
2023-05-19T11:36:22.129Z,646.88
2023-05-19T11:37:22.119Z,703.13
2023-05-19T11:38:22.092Z,736.88
2023-05-19T11:39:22.063Z,753.75
2023-05-19T11:40:22.198Z,765.00
2023-05-19T11:41:22.037Z,748.13
2023-05-19T11:42:22.002Z,765.00
2023-05-19T11:43:21.971Z,781.88
2023-05-19T11:44:21.938Z,748.13
2023-05-19T11:45:21.926Z,714.38
2023-05-19T11:46:22.013Z,680.63
2023-05-19T11:47:21.864Z,680.63
2023-05-19T11:48:21.886Z,675.00
2023-05-19T11:49:21.826Z,669.38
2023-05-19T11:50:21.785Z,641.25
2023-05-19T11:51:21.904Z,630.00
2023-05-19T11:52:21.877Z,635.63
2023-05-19T11:53:21.721Z,680.63
2023-05-19T11:54:21.695Z,708.75
2023-05-19T11:55:21.668Z,714.38
2023-05-19T11:56:21.658Z,703.13
2023-05-19T11:57:21.615Z,680.63
2023-05-19T11:58:21.639Z,658.13
2023-05-19T11:59:21.561Z,663.75
2023-05-19T12:00:21.556Z,708.75
2023-05-19T12:01:21.519Z,748.13
2023-05-19T12:02:21.510Z,776.25
2023-05-19T12:03:21.587Z,798.75
2023-05-19T12:04:21.502Z,832.50
2023-05-19T12:05:21.458Z,860.63
2023-05-19T12:06:21.492Z,871.88
2023-05-19T12:07:21.382Z,855.00
2023-05-19T12:08:21.336Z,843.75
2023-05-19T12:09:21.320Z,832.50
2023-05-19T12:10:21.341Z,821.25
2023-05-19T12:11:21.273Z,843.75
2023-05-19T12:12:21.237Z,871.88
2023-05-19T12:13:21.225Z,911.25
2023-05-19T12:14:21.175Z,956.25
2023-05-19T12:15:21.173Z,967.50
2023-05-19T12:16:21.260Z,978.75
2023-05-19T12:17:21.186Z,978.75
2023-05-19T12:18:21.102Z,956.25
2023-05-19T12:19:21.111Z,900.00
2023-05-19T12:20:21.032Z,871.88
2023-05-19T12:21:21.010Z,798.75
2023-05-19T12:22:21.037Z,759.38
2023-05-19T12:23:21.018Z,731.25
2023-05-19T12:24:20.935Z,720.00
2023-05-19T12:25:20.956Z,708.75
2023-05-19T12:26:20.877Z,680.63
2023-05-19T12:27:20.854Z,652.50
2023-05-19T12:28:20.897Z,641.25
2023-05-19T12:29:20.815Z,669.38
2023-05-19T12:30:20.787Z,652.50
2023-05-19T12:31:20.789Z,663.75
2023-05-19T12:32:20.744Z,680.63
2023-05-19T12:33:20.715Z,663.75
2023-05-19T12:34:20.744Z,635.63
2023-05-19T12:35:20.677Z,613.13
2023-05-19T12:36:20.637Z,601.88
2023-05-19T12:37:20.620Z,590.63
2023-05-19T12:38:20.637Z,624.38
2023-05-19T12:39:21.484Z,630.00
2023-05-19T12:40:20.600Z,630.00
2023-05-19T12:41:20.533Z,658.13
2023-05-19T12:42:20.491Z,675.00